sensor_id;sensor_type;location;lat;lon;timestamp;temperature;humidity
75683;HTU21D;64295;44.772;39.872;2024-01-06T00:00:38;7.20;72.70
75683;HTU21D;64295;44.772;39.872;2024-01-06T00:03:04;7.18;72.74
75683;HTU21D;64295;44.772;39.872;2024-01-06T00:05:30;7.16;72.80
75683;HTU21D;64295;44.772;39.872;2024-01-06T00:07:56;7.13;72.81
75683;HTU21D;64295;44.772;39.872;2024-01-06T00:10:22;7.12;72.87
75683;HTU21D;64295;44.772;39.872;2024-01-06T00:12:48;7.11;72.86
75683;HTU21D;64295;44.772;39.872;2024-01-06T00:15:14;7.07;72.88
75683;HTU21D;64295;44.772;39.872;2024-01-06T00:17:47;7.03;72.94
75683;HTU21D;64295;44.772;39.872;2024-01-06T00:20:13;7.00;72.96
75683;HTU21D;64295;44.772;39.872;2024-01-06T00:22:41;6.99;73.04
75683;HTU21D;64295;44.772;39.872;2024-01-06T00:25:09;6.95;73.05
75683;HTU21D;64295;44.772;39.872;2024-01-06T00:27:40;6.89;73.11
75683;HTU21D;64295;44.772;39.872;2024-01-06T00:30:10;6.85;73.16
75683;HTU21D;64295;44.772;39.872;2024-01-06T00:32:37;6.82;73.20
75683;HTU21D;64295;44.772;39.872;2024-01-06T00:35:04;6.80;73.22
75683;HTU21D;64295;44.772;39.872;2024-01-06T00:37:39;6.83;73.12
75683;HTU21D;64295;44.772;39.872;2024-01-06T00:40:13;6.83;73.12
75683;HTU21D;64295;44.772;39.872;2024-01-06T00:42:40;6.81;73.08
75683;HTU21D;64295;44.772;39.872;2024-01-06T00:45:06;6.78;73.11
75683;HTU21D;64295;44.772;39.872;2024-01-06T00:47:32;6.75;73.12
75683;HTU21D;64295;44.772;39.872;2024-01-06T00:49:58;6.78;73.08
75683;HTU21D;64295;44.772;39.872;2024-01-06T00:52:25;6.78;73.09
75683;HTU21D;64295;44.772;39.872;2024-01-06T00:54:51;6.80;73.05
75683;HTU21D;64295;44.772;39.872;2024-01-06T00:57:17;6.84;72.98
75683;HTU21D;64295;44.772;39.872;2024-01-06T00:59:49;6.88;72.87
75683;HTU21D;64295;44.772;39.872;2024-01-06T01:02:16;6.88;72.87
75683;HTU21D;64295;44.772;39.872;2024-01-06T01:04:42;6.88;72.90
75683;HTU21D;64295;44.772;39.872;2024-01-06T01:07:08;6.87;72.93
75683;HTU21D;64295;44.772;39.872;2024-01-06T01:09:35;6.88;72.93
75683;HTU21D;64295;44.772;39.872;2024-01-06T01:12:00;6.88;72.94
75683;HTU21D;64295;44.772;39.872;2024-01-06T01:14:26;6.87;72.98
75683;HTU21D;64295;44.772;39.872;2024-01-06T01:16:53;6.89;72.98
75683;HTU21D;64295;44.772;39.872;2024-01-06T01:19:19;6.88;72.98
75683;HTU21D;64295;44.772;39.872;2024-01-06T01:21:45;6.88;72.96
75683;HTU21D;64295;44.772;39.872;2024-01-06T01:24:10;6.87;73.02
75683;HTU21D;64295;44.772;39.872;2024-01-06T01:26:36;6.89;72.96
75683;HTU21D;64295;44.772;39.872;2024-01-06T01:29:02;6.89;72.96
75683;HTU21D;64295;44.772;39.872;2024-01-06T01:31:28;6.88;73.01
75683;HTU21D;64295;44.772;39.872;2024-01-06T01:33:54;6.87;73.01
75683;HTU21D;64295;44.772;39.872;2024-01-06T01:36:20;6.87;73.02
75683;HTU21D;64295;44.772;39.872;2024-01-06T01:38:46;6.87;73.00
75683;HTU21D;64295;44.772;39.872;2024-01-06T01:41:12;6.87;73.02
75683;HTU21D;64295;44.772;39.872;2024-01-06T01:43:38;6.84;73.06
75683;HTU21D;64295;44.772;39.872;2024-01-06T01:46:04;6.81;73.12
75683;HTU21D;64295;44.772;39.872;2024-01-06T01:48:30;6.78;73.13
75683;HTU21D;64295;44.772;39.872;2024-01-06T01:50:59;6.80;73.13
75683;HTU21D;64295;44.772;39.872;2024-01-06T01:53:26;6.78;73.11
75683;HTU21D;64295;44.772;39.872;2024-01-06T01:55:53;6.76;73.11
75683;HTU21D;64295;44.772;39.872;2024-01-06T01:58:19;6.76;73.09
75683;HTU21D;64295;44.772;39.872;2024-01-06T02:00:45;6.73;73.13
75683;HTU21D;64295;44.772;39.872;2024-01-06T02:03:13;6.74;73.11
75683;HTU21D;64295;44.772;39.872;2024-01-06T02:05:39;6.74;73.06
75683;HTU21D;64295;44.772;39.872;2024-01-06T02:08:05;6.75;73.03
75683;HTU21D;64295;44.772;39.872;2024-01-06T02:10:31;6.72;73.06
75683;HTU21D;64295;44.772;39.872;2024-01-06T02:12:57;6.70;73.06
75683;HTU21D;64295;44.772;39.872;2024-01-06T02:15:32;6.66;73.12
75683;HTU21D;64295;44.772;39.872;2024-01-06T02:17:58;6.64;73.12
75683;HTU21D;64295;44.772;39.872;2024-01-06T02:20:24;6.65;73.14
75683;HTU21D;64295;44.772;39.872;2024-01-06T02:22:51;6.63;73.09
75683;HTU21D;64295;44.772;39.872;2024-01-06T02:25:18;6.65;73.06
75683;HTU21D;64295;44.772;39.872;2024-01-06T02:27:44;6.63;73.06
75683;HTU21D;64295;44.772;39.872;2024-01-06T02:30:10;6.61;73.06
75683;HTU21D;64295;44.772;39.872;2024-01-06T02:32:36;6.60;73.05
75683;HTU21D;64295;44.772;39.872;2024-01-06T02:35:02;6.58;73.05
75683;HTU21D;64295;44.772;39.872;2024-01-06T02:37:29;6.56;73.09
75683;HTU21D;64295;44.772;39.872;2024-01-06T02:39:57;6.56;73.10
75683;HTU21D;64295;44.772;39.872;2024-01-06T02:42:23;6.52;73.03
75683;HTU21D;64295;44.772;39.872;2024-01-06T02:44:51;6.49;73.04
75683;HTU21D;64295;44.772;39.872;2024-01-06T02:47:17;6.44;73.07
75683;HTU21D;64295;44.772;39.872;2024-01-06T02:49:43;6.44;73.08
75683;HTU21D;64295;44.772;39.872;2024-01-06T02:52:09;6.42;73.09
75683;HTU21D;64295;44.772;39.872;2024-01-06T02:54:35;6.40;73.12
75683;HTU21D;64295;44.772;39.872;2024-01-06T02:57:01;6.38;73.10
75683;HTU21D;64295;44.772;39.872;2024-01-06T02:59:28;6.33;73.15
75683;HTU21D;64295;44.772;39.872;2024-01-06T03:01:56;6.30;73.17
75683;HTU21D;64295;44.772;39.872;2024-01-06T03:04:24;6.29;73.18
75683;HTU21D;64295;44.772;39.872;2024-01-06T03:06:49;6.27;73.16
75683;HTU21D;64295;44.772;39.872;2024-01-06T03:09:19;6.24;73.18
75683;HTU21D;64295;44.772;39.872;2024-01-06T03:11:47;6.22;73.19
75683;HTU21D;64295;44.772;39.872;2024-01-06T03:14:13;6.20;73.24
75683;HTU21D;64295;44.772;39.872;2024-01-06T03:16:39;6.13;73.27
75683;HTU21D;64295;44.772;39.872;2024-01-06T03:19:06;6.10;73.35
75683;HTU21D;64295;44.772;39.872;2024-01-06T03:21:32;6.11;73.28
75683;HTU21D;64295;44.772;39.872;2024-01-06T03:23:58;6.12;73.22
75683;HTU21D;64295;44.772;39.872;2024-01-06T03:26:23;6.11;73.21
75683;HTU21D;64295;44.772;39.872;2024-01-06T03:28:49;6.07;73.26
75683;HTU21D;64295;44.772;39.872;2024-01-06T03:31:16;6.05;73.31
75683;HTU21D;64295;44.772;39.872;2024-01-06T03:33:43;6.02;73.28
75683;HTU21D;64295;44.772;39.872;2024-01-06T03:36:12;6.02;73.27
75683;HTU21D;64295;44.772;39.872;2024-01-06T03:38:38;5.97;73.31
75683;HTU21D;64295;44.772;39.872;2024-01-06T03:41:03;5.92;73.37
75683;HTU21D;64295;44.772;39.872;2024-01-06T03:43:29;5.85;73.41
75683;HTU21D;64295;44.772;39.872;2024-01-06T03:45:57;5.85;73.40
75683;HTU21D;64295;44.772;39.872;2024-01-06T03:48:27;5.80;73.42
75683;HTU21D;64295;44.772;39.872;2024-01-06T03:50:54;5.82;73.40
75683;HTU21D;64295;44.772;39.872;2024-01-06T03:53:19;5.86;73.29
75683;HTU21D;64295;44.772;39.872;2024-01-06T03:55:45;5.83;73.28
75683;HTU21D;64295;44.772;39.872;2024-01-06T03:58:11;5.80;73.28
75683;HTU21D;64295;44.772;39.872;2024-01-06T04:00:37;5.75;73.33
75683;HTU21D;64295;44.772;39.872;2024-01-06T04:03:03;5.69;73.41
75683;HTU21D;64295;44.772;39.872;2024-01-06T04:05:31;5.65;73.45
75683;HTU21D;64295;44.772;39.872;2024-01-06T04:07:57;5.64;73.51
75683;HTU21D;64295;44.772;39.872;2024-01-06T04:10:23;5.62;73.44
75683;HTU21D;64295;44.772;39.872;2024-01-06T04:12:48;5.56;73.49
75683;HTU21D;64295;44.772;39.872;2024-01-06T04:15:14;5.55;73.57
75683;HTU21D;64295;44.772;39.872;2024-01-06T04:17:40;5.49;73.55
75683;HTU21D;64295;44.772;39.872;2024-01-06T04:20:06;5.46;73.58
75683;HTU21D;64295;44.772;39.872;2024-01-06T04:22:33;5.40;73.64
75683;HTU21D;64295;44.772;39.872;2024-01-06T04:24:59;5.38;73.65
75683;HTU21D;64295;44.772;39.872;2024-01-06T04:27:25;5.38;73.65
75683;HTU21D;64295;44.772;39.872;2024-01-06T04:29:51;5.41;73.51
75683;HTU21D;64295;44.772;39.872;2024-01-06T04:32:18;5.45;73.43
75683;HTU21D;64295;44.772;39.872;2024-01-06T04:34:44;5.45;73.35
75683;HTU21D;64295;44.772;39.872;2024-01-06T04:37:10;5.43;73.41
75683;HTU21D;64295;44.772;39.872;2024-01-06T04:39:36;5.49;73.32
75683;HTU21D;64295;44.772;39.872;2024-01-06T04:42:02;5.53;73.22
75683;HTU21D;64295;44.772;39.872;2024-01-06T04:44:28;5.54;73.17
75683;HTU21D;64295;44.772;39.872;2024-01-06T04:46:54;5.60;73.15
75683;HTU21D;64295;44.772;39.872;2024-01-06T04:49:20;5.61;73.05
75683;HTU21D;64295;44.772;39.872;2024-01-06T04:51:47;5.61;73.10
75683;HTU21D;64295;44.772;39.872;2024-01-06T04:54:13;5.60;73.09
75683;HTU21D;64295;44.772;39.872;2024-01-06T04:56:39;5.62;73.10
75683;HTU21D;64295;44.772;39.872;2024-01-06T04:59:05;5.63;73.06
75683;HTU21D;64295;44.772;39.872;2024-01-06T05:01:32;5.61;73.09
75683;HTU21D;64295;44.772;39.872;2024-01-06T05:03:58;5.63;73.09
75683;HTU21D;64295;44.772;39.872;2024-01-06T05:06:24;5.61;73.12
75683;HTU21D;64295;44.772;39.872;2024-01-06T05:08:50;5.61;73.08
75683;HTU21D;64295;44.772;39.872;2024-01-06T05:11:16;5.59;73.15
75683;HTU21D;64295;44.772;39.872;2024-01-06T05:13:42;5.61;73.14
75683;HTU21D;64295;44.772;39.872;2024-01-06T05:16:08;5.63;73.11
75683;HTU21D;64295;44.772;39.872;2024-01-06T05:18:34;5.64;73.04
75683;HTU21D;64295;44.772;39.872;2024-01-06T05:21:01;5.67;73.02
75683;HTU21D;64295;44.772;39.872;2024-01-06T05:23:27;5.68;72.97
75683;HTU21D;64295;44.772;39.872;2024-01-06T05:25:53;5.74;72.90
75683;HTU21D;64295;44.772;39.872;2024-01-06T05:28:19;5.76;72.83
75683;HTU21D;64295;44.772;39.872;2024-01-06T05:30:45;5.72;72.80
75683;HTU21D;64295;44.772;39.872;2024-01-06T05:33:12;5.63;73.00
75683;HTU21D;64295;44.772;39.872;2024-01-06T05:35:41;5.57;73.16
75683;HTU21D;64295;44.772;39.872;2024-01-06T05:38:07;5.54;73.11
75683;HTU21D;64295;44.772;39.872;2024-01-06T05:40:32;5.54;73.05
75683;HTU21D;64295;44.772;39.872;2024-01-06T05:42:59;5.49;73.16
75683;HTU21D;64295;44.772;39.872;2024-01-06T05:45:25;5.50;73.14
75683;HTU21D;64295;44.772;39.872;2024-01-06T05:47:50;5.51;73.12
75683;HTU21D;64295;44.772;39.872;2024-01-06T05:50:18;5.60;72.99
75683;HTU21D;64295;44.772;39.872;2024-01-06T05:52:44;5.69;72.83
75683;HTU21D;64295;44.772;39.872;2024-01-06T05:55:13;5.72;72.66
75683;HTU21D;64295;44.772;39.872;2024-01-06T05:57:38;5.71;72.70
75683;HTU21D;64295;44.772;39.872;2024-01-06T06:00:09;5.75;72.68
75683;HTU21D;64295;44.772;39.872;2024-01-06T06:02:40;5.77;72.65
75683;HTU21D;64295;44.772;39.872;2024-01-06T06:05:08;5.77;72.67
75683;HTU21D;64295;44.772;39.872;2024-01-06T06:07:34;5.72;72.68
75683;HTU21D;64295;44.772;39.872;2024-01-06T06:10:08;5.74;72.74
75683;HTU21D;64295;44.772;39.872;2024-01-06T06:12:34;5.72;72.70
75683;HTU21D;64295;44.772;39.872;2024-01-06T06:15:01;5.80;72.89
75683;HTU21D;64295;44.772;39.872;2024-01-06T06:17:30;5.98;72.39
75683;HTU21D;64295;44.772;39.872;2024-01-06T06:19:57;6.08;72.26
75683;HTU21D;64295;44.772;39.872;2024-01-06T06:22:23;6.17;72.01
75683;HTU21D;64295;44.772;39.872;2024-01-06T06:24:51;6.22;72.21
75683;HTU21D;64295;44.772;39.872;2024-01-06T06:27:17;6.40;71.72
75683;HTU21D;64295;44.772;39.872;2024-01-06T06:29:43;6.52;71.61
75683;HTU21D;64295;44.772;39.872;2024-01-06T06:32:09;6.59;71.52
75683;HTU21D;64295;44.772;39.872;2024-01-06T06:34:35;6.68;71.46
75683;HTU21D;64295;44.772;39.872;2024-01-06T06:37:01;6.78;71.38
75683;HTU21D;64295;44.772;39.872;2024-01-06T06:39:27;7.10;71.10
75683;HTU21D;64295;44.772;39.872;2024-01-06T06:41:53;7.28;70.76
75683;HTU21D;64295;44.772;39.872;2024-01-06T06:44:19;7.39;70.66
75683;HTU21D;64295;44.772;39.872;2024-01-06T06:46:45;7.48;70.68
75683;HTU21D;64295;44.772;39.872;2024-01-06T06:49:12;7.58;70.60
75683;HTU21D;64295;44.772;39.872;2024-01-06T06:51:38;7.71;70.56
75683;HTU21D;64295;44.772;39.872;2024-01-06T06:54:12;7.86;70.45
75683;HTU21D;64295;44.772;39.872;2024-01-06T06:56:38;7.99;70.35
75683;HTU21D;64295;44.772;39.872;2024-01-06T06:59:05;8.13;70.26
75683;HTU21D;64295;44.772;39.872;2024-01-06T07:01:31;8.24;70.17
75683;HTU21D;64295;44.772;39.872;2024-01-06T07:03:57;8.47;69.98
75683;HTU21D;64295;44.772;39.872;2024-01-06T07:06:23;8.73;69.69
75683;HTU21D;64295;44.772;39.872;2024-01-06T07:08:49;8.78;69.65
75683;HTU21D;64295;44.772;39.872;2024-01-06T07:11:15;9.19;69.39
75683;HTU21D;64295;44.772;39.872;2024-01-06T07:13:44;9.30;69.08
75683;HTU21D;64295;44.772;39.872;2024-01-06T07:16:10;9.26;69.36
75683;HTU21D;64295;44.772;39.872;2024-01-06T07:18:47;9.20;69.59
75683;HTU21D;64295;44.772;39.872;2024-01-06T07:21:16;9.17;69.82
75683;HTU21D;64295;44.772;39.872;2024-01-06T07:23:42;9.15;70.02
75683;HTU21D;64295;44.772;39.872;2024-01-06T07:26:08;9.17;70.08
75683;HTU21D;64295;44.772;39.872;2024-01-06T07:28:34;9.19;70.09
75683;HTU21D;64295;44.772;39.872;2024-01-06T07:31:00;9.20;70.16
75683;HTU21D;64295;44.772;39.872;2024-01-06T07:33:26;9.23;70.13
75683;HTU21D;64295;44.772;39.872;2024-01-06T07:35:52;9.24;70.15
75683;HTU21D;64295;44.772;39.872;2024-01-06T07:38:18;9.31;70.20
75683;HTU21D;64295;44.772;39.872;2024-01-06T07:40:45;9.49;69.87
75683;HTU21D;64295;44.772;39.872;2024-01-06T07:43:11;9.50;69.87
75683;HTU21D;64295;44.772;39.872;2024-01-06T07:45:37;9.63;69.82
75683;HTU21D;64295;44.772;39.872;2024-01-06T07:48:06;9.80;69.55
75683;HTU21D;64295;44.772;39.872;2024-01-06T07:50:38;9.92;69.33
75683;HTU21D;64295;44.772;39.872;2024-01-06T07:53:12;10.04;69.19
75683;HTU21D;64295;44.772;39.872;2024-01-06T07:55:40;10.11;69.15
75683;HTU21D;64295;44.772;39.872;2024-01-06T07:58:06;10.15;69.11
75683;HTU21D;64295;44.772;39.872;2024-01-06T08:00:32;10.21;69.11
75683;HTU21D;64295;44.772;39.872;2024-01-06T08:02:58;10.31;69.01
75683;HTU21D;64295;44.772;39.872;2024-01-06T08:05:24;10.40;68.89
75683;HTU21D;64295;44.772;39.872;2024-01-06T08:07:51;10.46;68.89
75683;HTU21D;64295;44.772;39.872;2024-01-06T08:10:17;10.58;68.74
75683;HTU21D;64295;44.772;39.872;2024-01-06T08:12:43;10.70;68.68
75683;HTU21D;64295;44.772;39.872;2024-01-06T08:15:09;10.78;68.52
75683;HTU21D;64295;44.772;39.872;2024-01-06T08:17:55;10.83;68.52
75683;HTU21D;64295;44.772;39.872;2024-01-06T08:20:21;10.87;68.62
75683;HTU21D;64295;44.772;39.872;2024-01-06T08:22:47;11.04;68.40
75683;HTU21D;64295;44.772;39.872;2024-01-06T08:25:13;11.15;68.23
75683;HTU21D;64295;44.772;39.872;2024-01-06T08:27:39;11.17;68.31
75683;HTU21D;64295;44.772;39.872;2024-01-06T08:30:05;11.31;68.29
75683;HTU21D;64295;44.772;39.872;2024-01-06T08:32:32;11.38;68.16
75683;HTU21D;64295;44.772;39.872;2024-01-06T08:34:58;11.42;68.28
75683;HTU21D;64295;44.772;39.872;2024-01-06T08:37:23;11.55;68.18
75683;HTU21D;64295;44.772;39.872;2024-01-06T08:39:50;11.60;68.13
75683;HTU21D;64295;44.772;39.872;2024-01-06T08:42:16;11.68;68.15
75683;HTU21D;64295;44.772;39.872;2024-01-06T08:44:42;11.76;68.10
75683;HTU21D;64295;44.772;39.872;2024-01-06T08:47:09;11.81;68.05
75683;HTU21D;64295;44.772;39.872;2024-01-06T08:49:35;11.85;68.21
75683;HTU21D;64295;44.772;39.872;2024-01-06T08:52:01;11.99;68.09
75683;HTU21D;64295;44.772;39.872;2024-01-06T08:54:27;12.01;68.15
75683;HTU21D;64295;44.772;39.872;2024-01-06T08:56:53;11.94;68.09
75683;HTU21D;64295;44.772;39.872;2024-01-06T08:59:19;12.01;68.26
75683;HTU21D;64295;44.772;39.872;2024-01-06T09:01:45;12.20;67.90
75683;HTU21D;64295;44.772;39.872;2024-01-06T09:04:11;12.22;67.97
75683;HTU21D;64295;44.772;39.872;2024-01-06T09:06:38;12.26;68.16
75683;HTU21D;64295;44.772;39.872;2024-01-06T09:09:04;12.41;68.03
75683;HTU21D;64295;44.772;39.872;2024-01-06T09:11:31;12.61;67.89
75683;HTU21D;64295;44.772;39.872;2024-01-06T09:14:03;12.86;67.58
75683;HTU21D;64295;44.772;39.872;2024-01-06T09:16:29;12.75;67.62
75683;HTU21D;64295;44.772;39.872;2024-01-06T09:18:55;12.59;68.17
75683;HTU21D;64295;44.772;39.872;2024-01-06T09:21:21;12.57;68.42
75683;HTU21D;64295;44.772;39.872;2024-01-06T09:23:47;12.52;68.63
75683;HTU21D;64295;44.772;39.872;2024-01-06T09:26:13;12.55;68.70
75683;HTU21D;64295;44.772;39.872;2024-01-06T09:28:39;12.53;68.73
75683;HTU21D;64295;44.772;39.872;2024-01-06T09:31:05;12.52;68.97
75683;HTU21D;64295;44.772;39.872;2024-01-06T09:33:31;12.71;68.68
75683;HTU21D;64295;44.772;39.872;2024-01-06T09:36:00;13.06;68.10
75683;HTU21D;64295;44.772;39.872;2024-01-06T09:38:26;13.26;67.69
75683;HTU21D;64295;44.772;39.872;2024-01-06T09:40:53;13.37;67.59
75683;HTU21D;64295;44.772;39.872;2024-01-06T09:43:19;13.52;67.47
75683;HTU21D;64295;44.772;39.872;2024-01-06T09:45:56;13.68;67.30
75683;HTU21D;64295;44.772;39.872;2024-01-06T09:48:29;13.79;67.04
75683;HTU21D;64295;44.772;39.872;2024-01-06T09:50:56;13.76;67.16
75683;HTU21D;64295;44.772;39.872;2024-01-06T09:53:26;13.56;67.49
75683;HTU21D;64295;44.772;39.872;2024-01-06T09:55:55;13.56;67.65
75683;HTU21D;64295;44.772;39.872;2024-01-06T09:58:21;13.63;67.50
75683;HTU21D;64295;44.772;39.872;2024-01-06T10:00:48;13.91;67.01
75683;HTU21D;64295;44.772;39.872;2024-01-06T10:03:15;14.14;66.54
75683;HTU21D;64295;44.772;39.872;2024-01-06T10:05:41;14.30;66.34
75683;HTU21D;64295;44.772;39.872;2024-01-06T10:08:07;14.40;66.14
75683;HTU21D;64295;44.772;39.872;2024-01-06T10:10:33;14.28;66.40
75683;HTU21D;64295;44.772;39.872;2024-01-06T10:13:00;14.30;66.39
75683;HTU21D;64295;44.772;39.872;2024-01-06T10:15:26;14.14;66.30
75683;HTU21D;64295;44.772;39.872;2024-01-06T10:17:53;14.00;66.56
75683;HTU21D;64295;44.772;39.872;2024-01-06T10:20:21;13.91;66.43
75683;HTU21D;64295;44.772;39.872;2024-01-06T10:22:47;13.78;66.65
75683;HTU21D;64295;44.772;39.872;2024-01-06T10:25:13;13.76;66.59
75683;HTU21D;64295;44.772;39.872;2024-01-06T10:27:41;13.65;66.30
75683;HTU21D;64295;44.772;39.872;2024-01-06T10:30:08;13.38;66.35
75683;HTU21D;64295;44.772;39.872;2024-01-06T10:32:35;13.18;66.59
75683;HTU21D;64295;44.772;39.872;2024-01-06T10:35:02;13.07;66.72
75683;HTU21D;64295;44.772;39.872;2024-01-06T10:37:29;12.96;66.59
75683;HTU21D;64295;44.772;39.872;2024-01-06T10:40:13;12.81;66.56
75683;HTU21D;64295;44.772;39.872;2024-01-06T10:42:42;12.66;66.81
75683;HTU21D;64295;44.772;39.872;2024-01-06T10:45:10;12.66;66.76
75683;HTU21D;64295;44.772;39.872;2024-01-06T10:47:37;12.73;66.52
75683;HTU21D;64295;44.772;39.872;2024-01-06T10:50:04;12.77;66.30
75683;HTU21D;64295;44.772;39.872;2024-01-06T10:52:31;12.88;65.94
75683;HTU21D;64295;44.772;39.872;2024-01-06T10:54:58;12.89;65.71
75683;HTU21D;64295;44.772;39.872;2024-01-06T10:57:24;12.91;65.59
75683;HTU21D;64295;44.772;39.872;2024-01-06T10:59:51;12.94;65.46
75683;HTU21D;64295;44.772;39.872;2024-01-06T11:02:18;12.96;65.29
75683;HTU21D;64295;44.772;39.872;2024-01-06T11:04:48;12.99;65.19
75683;HTU21D;64295;44.772;39.872;2024-01-06T11:07:19;12.96;65.08
75683;HTU21D;64295;44.772;39.872;2024-01-06T11:09:56;12.94;65.07
75683;HTU21D;64295;44.772;39.872;2024-01-06T11:12:33;12.79;65.17
75683;HTU21D;64295;44.772;39.872;2024-01-06T11:14:59;12.67;65.30
75683;HTU21D;64295;44.772;39.872;2024-01-06T11:17:51;12.63;65.50
75683;HTU21D;64295;44.772;39.872;2024-01-06T11:20:22;12.67;65.39
75683;HTU21D;64295;44.772;39.872;2024-01-06T11:22:49;12.87;65.09
75683;HTU21D;64295;44.772;39.872;2024-01-06T11:25:17;13.00;64.77
75683;HTU21D;64295;44.772;39.872;2024-01-06T11:27:49;13.06;64.69
75683;HTU21D;64295;44.772;39.872;2024-01-06T11:30:26;13.14;64.51
75683;HTU21D;64295;44.772;39.872;2024-01-06T11:32:53;13.20;64.18
75683;HTU21D;64295;44.772;39.872;2024-01-06T11:35:20;13.15;64.14
75683;HTU21D;64295;44.772;39.872;2024-01-06T11:42:48;13.11;64.07
75683;HTU21D;64295;44.772;39.872;2024-01-06T11:45:21;13.10;64.11
75683;HTU21D;64295;44.772;39.872;2024-01-06T11:47:54;13.09;64.08
75683;HTU21D;64295;44.772;39.872;2024-01-06T11:50:20;13.19;64.00
75683;HTU21D;64295;44.772;39.872;2024-01-06T11:52:46;13.23;63.79
75683;HTU21D;64295;44.772;39.872;2024-01-06T11:55:12;13.18;63.74
75683;HTU21D;64295;44.772;39.872;2024-01-06T11:57:38;13.07;63.76
75683;HTU21D;64295;44.772;39.872;2024-01-06T12:00:05;13.07;63.82
75683;HTU21D;64295;44.772;39.872;2024-01-06T12:02:32;13.06;63.77
75683;HTU21D;64295;44.772;39.872;2024-01-06T12:04:58;13.08;63.66
75683;HTU21D;64295;44.772;39.872;2024-01-06T12:07:24;13.11;63.58
75683;HTU21D;64295;44.772;39.872;2024-01-06T12:09:51;13.17;63.42
75683;HTU21D;64295;44.772;39.872;2024-01-06T12:12:25;13.19;63.46
75683;HTU21D;64295;44.772;39.872;2024-01-06T12:14:51;13.20;63.44
75683;HTU21D;64295;44.772;39.872;2024-01-06T12:17:17;13.16;63.43
75683;HTU21D;64295;44.772;39.872;2024-01-06T12:19:47;13.20;63.35
75683;HTU21D;64295;44.772;39.872;2024-01-06T12:22:14;13.17;63.28
75683;HTU21D;64295;44.772;39.872;2024-01-06T12:24:41;13.19;63.15
75683;HTU21D;64295;44.772;39.872;2024-01-06T12:27:09;13.16;63.23
75683;HTU21D;64295;44.772;39.872;2024-01-06T12:29:39;13.24;63.32
75683;HTU21D;64295;44.772;39.872;2024-01-06T12:32:06;13.45;62.83
75683;HTU21D;64295;44.772;39.872;2024-01-06T12:34:33;13.49;62.65
75683;HTU21D;64295;44.772;39.872;2024-01-06T12:37:00;13.41;62.60
75683;HTU21D;64295;44.772;39.872;2024-01-06T12:39:28;13.29;62.81
75683;HTU21D;64295;44.772;39.872;2024-01-06T12:41:57;13.25;62.89
75683;HTU21D;64295;44.772;39.872;2024-01-06T12:44:26;13.23;62.92
75683;HTU21D;64295;44.772;39.872;2024-01-06T12:46:53;13.23;62.87
75683;HTU21D;64295;44.772;39.872;2024-01-06T12:49:19;13.20;62.83
75683;HTU21D;64295;44.772;39.872;2024-01-06T12:51:45;13.11;62.86
75683;HTU21D;64295;44.772;39.872;2024-01-06T12:54:11;12.97;62.87
75683;HTU21D;64295;44.772;39.872;2024-01-06T12:56:37;12.84;63.18
75683;HTU21D;64295;44.772;39.872;2024-01-06T12:59:03;12.79;63.10
75683;HTU21D;64295;44.772;39.872;2024-01-06T13:01:29;12.66;63.24
75683;HTU21D;64295;44.772;39.872;2024-01-06T13:03:55;12.58;63.43
75683;HTU21D;64295;44.772;39.872;2024-01-06T13:06:24;12.55;63.45
75683;HTU21D;64295;44.772;39.872;2024-01-06T13:08:51;12.48;63.43
75683;HTU21D;64295;44.772;39.872;2024-01-06T13:11:17;12.45;63.42
75683;HTU21D;64295;44.772;39.872;2024-01-06T13:13:44;12.46;63.31
75683;HTU21D;64295;44.772;39.872;2024-01-06T13:16:10;12.44;63.25
75683;HTU21D;64295;44.772;39.872;2024-01-06T13:18:36;12.37;63.22
75683;HTU21D;64295;44.772;39.872;2024-01-06T13:21:02;12.32;63.27
75683;HTU21D;64295;44.772;39.872;2024-01-06T13:23:28;12.28;63.28
75683;HTU21D;64295;44.772;39.872;2024-01-06T13:25:54;12.22;63.31
75683;HTU21D;64295;44.772;39.872;2024-01-06T13:28:20;12.21;63.33
75683;HTU21D;64295;44.772;39.872;2024-01-06T13:30:46;12.21;63.32
75683;HTU21D;64295;44.772;39.872;2024-01-06T13:33:12;12.32;63.23
75683;HTU21D;64295;44.772;39.872;2024-01-06T13:35:38;12.43;63.08
75683;HTU21D;64295;44.772;39.872;2024-01-06T13:38:04;12.43;62.95
75683;HTU21D;64295;44.772;39.872;2024-01-06T13:40:30;12.37;63.09
75683;HTU21D;64295;44.772;39.872;2024-01-06T13:42:57;12.31;63.18
75683;HTU21D;64295;44.772;39.872;2024-01-06T13:45:23;12.28;63.34
75683;HTU21D;64295;44.772;39.872;2024-01-06T13:47:49;12.40;63.09
75683;HTU21D;64295;44.772;39.872;2024-01-06T13:50:20;12.79;62.41
75683;HTU21D;64295;44.772;39.872;2024-01-06T13:52:46;12.69;62.54
75683;HTU21D;64295;44.772;39.872;2024-01-06T13:55:11;12.62;62.79
75683;HTU21D;64295;44.772;39.872;2024-01-06T13:57:37;12.55;62.91
75683;HTU21D;64295;44.772;39.872;2024-01-06T14:00:10;12.50;63.03
75683;HTU21D;64295;44.772;39.872;2024-01-06T14:02:40;12.44;63.14
75683;HTU21D;64295;44.772;39.872;2024-01-06T14:05:06;12.42;63.25
75683;HTU21D;64295;44.772;39.872;2024-01-06T14:07:35;12.70;63.12
75683;HTU21D;64295;44.772;39.872;2024-01-06T14:10:01;12.90;62.40
75683;HTU21D;64295;44.772;39.872;2024-01-06T14:12:31;12.84;62.53
75683;HTU21D;64295;44.772;39.872;2024-01-06T14:14:57;12.74;62.79
75683;HTU21D;64295;44.772;39.872;2024-01-06T14:17:24;12.67;62.94
75683;HTU21D;64295;44.772;39.872;2024-01-06T14:19:50;12.59;63.11
75683;HTU21D;64295;44.772;39.872;2024-01-06T14:22:18;12.49;63.26
75683;HTU21D;64295;44.772;39.872;2024-01-06T14:24:44;12.43;63.40
75683;HTU21D;64295;44.772;39.872;2024-01-06T14:27:10;12.36;63.50
75683;HTU21D;64295;44.772;39.872;2024-01-06T14:29:36;12.27;63.65
75683;HTU21D;64295;44.772;39.872;2024-01-06T14:32:02;12.17;63.77
75683;HTU21D;64295;44.772;39.872;2024-01-06T14:34:28;12.11;63.86
75683;HTU21D;64295;44.772;39.872;2024-01-06T14:36:53;12.04;63.94
75683;HTU21D;64295;44.772;39.872;2024-01-06T14:39:20;12.00;63.97
75683;HTU21D;64295;44.772;39.872;2024-01-06T14:41:48;11.93;63.98
75683;HTU21D;64295;44.772;39.872;2024-01-06T14:44:15;11.85;64.06
75683;HTU21D;64295;44.772;39.872;2024-01-06T14:46:40;11.73;64.18
75683;HTU21D;64295;44.772;39.872;2024-01-06T14:49:07;11.66;64.27
75683;HTU21D;64295;44.772;39.872;2024-01-06T14:51:33;11.59;64.30
75683;HTU21D;64295;44.772;39.872;2024-01-06T14:53:59;11.51;64.41
75683;HTU21D;64295;44.772;39.872;2024-01-06T14:56:25;11.51;64.37
75683;HTU21D;64295;44.772;39.872;2024-01-06T14:58:51;11.44;64.34
75683;HTU21D;64295;44.772;39.872;2024-01-06T15:01:17;11.37;64.47
75683;HTU21D;64295;44.772;39.872;2024-01-06T15:03:43;11.33;64.49
75683;HTU21D;64295;44.772;39.872;2024-01-06T15:06:09;11.34;64.43
75683;HTU21D;64295;44.772;39.872;2024-01-06T15:08:35;11.30;64.41
75683;HTU21D;64295;44.772;39.872;2024-01-06T15:11:01;11.22;64.50
75683;HTU21D;64295;44.772;39.872;2024-01-06T15:13:29;11.11;64.63